Puerto Maldonado, Peru
Current Conditions -  °F | °C
As of 5:00 PM on Saturday 22 Nov 2014 (Local Time) from SLCO Reporting Station
Scattered Clouds Scattered Clouds  
Wind Chill: 88°   Ceiling: Unl
Heat Index: 98°   Visibility: 6mi
Dew Point: 75°   Wind: 5mph
Humidity: 66%   Direction: 340°NNW
Pressure: 29.71"   Gusts: NA
Location:  12.6°S, 69.2°W
Report Text: SLCO 222200Z 34004KT 9999 FEW020 SCT200 31/24 Q1006
Loading
Personal Weather Stations






























Interactive Weather Map New forecast layout! Learn more

10-Day Weather Forecast

Advertisements
Track Severe Weather on mobile